Time;durP1;ratioP1;P1;durP2;ratioP2;P2;SDS_P1;SDS_P2;PMS_P1;PMS_P2;Temp;Humidity;BMP_temperature;BMP_pressure;BME280_temperature;BME280_humidity;BME280_pressure;Samples;Min_cycle;Max_cycle;Signal;HPM_P1;HPM_P2
2022/07/12 00:07:59;;;;;;;1.98;1.05;;;;;;;;;;21162255;28;20056;-60
2022/07/12 00:18:01;;;;;;;4.03;1.58;;;;;;;;;;21162584;28;20059;-60
2022/07/12 00:28:02;;;;;;;4.93;1.10;;;;;;;;;;21162332;28;20043;-61
2022/07/12 00:38:04;;;;;;;5.55;1.63;;;;;;;;;;21162016;28;20051;-62
2022/07/12 00:48:06;;;;;;;3.03;1.58;;;;;;;;;;21160963;28;20051;-63
2022/07/12 00:58:08;;;;;;;2.55;1.27;;;;;;;;;;21161144;28;20047;-61
2022/07/12 01:08:12;;;;;;;4.90;1.45;;;;;;;;;;21160699;28;20051;-62
2022/07/12 01:18:14;;;;;;;2.95;1.30;;;;;;;;;;21171334;28;20052;-62
2022/07/12 01:28:19;;;;;;;4.63;1.10;;;;;;;;;;21175159;28;20047;-62
2022/07/12 01:38:22;;;;;;;5.13;1.42;;;;;;;;;;21156533;28;20499;-61
2022/07/12 01:48:25;;;;;;;5.63;1.30;;;;;;;;;;21174865;28;20128;-62
2022/07/12 01:58:28;;;;;;;5.95;1.25;;;;;;;;;;21173772;28;20449;-61
2022/07/12 02:08:30;;;;;;;2.60;1.20;;;;;;;;;;21171688;28;20528;-61
2022/07/12 02:18:33;;;;;;;3.08;1.05;;;;;;;;;;21153393;28;20501;-60
2022/07/12 02:28:35;;;;;;;4.43;1.23;;;;;;;;;;21170411;28;20412;-62
2022/07/12 02:38:37;;;;;;;4.70;1.05;;;;;;;;;;21169192;28;20055;-63
2022/07/12 02:48:39;;;;;;;4.15;1.00;;;;;;;;;;21169306;28;20040;-62
2022/07/12 02:58:41;;;;;;;2.33;1.17;;;;;;;;;;21168562;28;20534;-61
2022/07/12 03:08:43;;;;;;;2.33;1.65;;;;;;;;;;21167552;28;20185;-62
2022/07/12 03:18:45;;;;;;;2.17;1.48;;;;;;;;;;21166471;28;20043;-61
2022/07/12 03:28:48;;;;;;;3.53;1.30;;;;;;;;;;21165708;28;20047;-62
2022/07/12 03:38:50;;;;;;;1.85;1.23;;;;;;;;;;21164983;28;20051;-61
2022/07/12 03:48:51;;;;;;;1.52;1.05;;;;;;;;;;21164504;28;20048;-61
2022/07/12 03:58:53;;;;;;;2.38;0.98;;;;;;;;;;21164982;28;20059;-61
2022/07/12 04:08:55;;;;;;;2.67;1.30;;;;;;;;;;21162821;28;20062;-60
2022/07/12 04:18:57;;;;;;;3.67;1.00;;;;;;;;;;21163059;28;20161;-62
2022/07/12 04:28:59;;;;;;;6.75;1.38;;;;;;;;;;21162327;28;20062;-61
2022/07/12 04:39:01;;;;;;;4.43;1.10;;;;;;;;;;21161594;28;20121;-62
2022/07/12 04:49:06;;;;;;;5.30;1.58;;;;;;;;;;21166835;28;20475;-61
2022/07/12 04:59:08;;;;;;;3.33;1.70;;;;;;;;;;21177816;28;20457;-62
2022/07/12 05:09:09;;;;;;;2.25;1.30;;;;;;;;;;21176182;28;20063;-63
2022/07/12 05:19:11;;;;;;;8.57;1.60;;;;;;;;;;21176321;28;20230;-61
2022/07/12 05:29:13;;;;;;;5.45;1.77;;;;;;;;;;21174975;28;20054;-61
2022/07/12 05:39:14;;;;;;;6.10;1.60;;;;;;;;;;21174644;28;20058;-62
2022/07/12 05:49:16;;;;;;;4.03;1.60;;;;;;;;;;21165704;28;20066;-60
2022/07/12 05:59:19;;;;;;;2.00;1.40;;;;;;;;;;21173876;28;20058;-62
2022/07/12 06:09:20;;;;;;;6.93;1.77;;;;;;;;;;21173564;28;20051;-62
2022/07/12 06:19:23;;;;;;;4.43;1.67;;;;;;;;;;21171506;28;20393;-61
2022/07/12 06:29:25;;;;;;;7.53;1.60;;;;;;;;;;21170580;28;20074;-62
2022/07/12 06:39:27;;;;;;;3.83;1.90;;;;;;;;;;21169181;28;20051;-62
2022/07/12 06:49:28;;;;;;;5.47;1.98;;;;;;;;;;21168671;28;20044;-61
2022/07/12 06:59:30;;;;;;;4.32;1.77;;;;;;;;;;21167951;28;20086;-61
2022/07/12 07:09:34;;;;;;;4.07;1.42;;;;;;;;;;21165678;28;20062;-62
2022/07/12 07:19:37;;;;;;;4.00;1.83;;;;;;;;;;21167654;28;20058;-62
2022/07/12 07:39:59;;;;;;;6.82;1.70;;;;;;;;;;21164233;28;20051;-61
2022/07/12 07:50:01;;;;;;;5.20;1.67;;;;;;;;;;21165331;28;20040;-61
2022/07/12 08:00:04;;;;;;;5.43;1.48;;;;;;;;;;21145789;28;20060;-62
2022/07/12 08:10:06;;;;;;;6.25;1.40;;;;;;;;;;21078895;28;20063;-61
2022/07/12 08:20:07;;;;;;;5.28;1.92;;;;;;;;;;21079975;28;20106;-62
2022/07/12 08:30:14;;;;;;;4.25;1.45;;;;;;;;;;21095219;28;20488;-62
2022/07/12 08:40:16;;;;;;;5.10;1.10;;;;;;;;;;21094431;28;20139;-61
2022/07/12 08:50:17;;;;;;;4.85;1.10;;;;;;;;;;21093569;28;20544;-62
2022/07/12 09:00:20;;;;;;;5.43;1.75;;;;;;;;;;21092987;28;20087;-62
2022/07/12 09:10:22;;;;;;;6.68;1.45;;;;;;;;;;21092289;28;20052;-61
2022/07/12 09:20:32;;;;;;;3.63;1.50;;;;;;;;;;21093649;28;20048;-65
2022/07/12 09:30:34;;;;;;;5.07;1.23;;;;;;;;;;21092615;28;20047;-60
2022/07/12 09:40:36;;;;;;;5.63;1.40;;;;;;;;;;21088561;28;20091;-60
2022/07/12 09:50:38;;;;;;;8.43;1.40;;;;;;;;;;21088910;28;20127;-59
2022/07/12 10:00:40;;;;;;;6.20;1.38;;;;;;;;;;21091939;28;20134;-61
2022/07/12 10:10:42;;;;;;;4.90;1.27;;;;;;;;;;21171166;28;20087;-61
2022/07/12 10:20:45;;;;;;;3.58;1.30;;;;;;;;;;21170942;28;20448;-59
2022/07/12 10:30:48;;;;;;;2.97;1.40;;;;;;;;;;21170146;28;20507;-61
2022/07/12 10:40:51;;;;;;;5.22;1.38;;;;;;;;;;21169170;28;20062;-62
2022/07/12 10:50:58;;;;;;;3.80;1.50;;;;;;;;;;21168241;28;20400;-62
2022/07/12 11:01:01;;;;;;;9.35;2.55;;;;;;;;;;21167840;28;20135;-62
2022/07/12 11:11:04;;;;;;;7.53;1.70;;;;;;;;;;21166521;28;20055;-61
2022/07/12 11:21:06;;;;;;;3.97;1.70;;;;;;;;;;21174499;28;20082;-60
2022/07/12 11:31:07;;;;;;;4.85;1.42;;;;;;;;;;21166852;28;20538;-61
2022/07/12 11:41:10;;;;;;;5.60;1.48;;;;;;;;;;21165585;28;20403;-62
2022/07/12 11:51:13;;;;;;;5.53;2.10;;;;;;;;;;21164648;28;20407;-63
2022/07/12 12:01:15;;;;;;;6.00;1.90;;;;;;;;;;21163902;28;20094;-63
2022/07/12 12:11:17;;;;;;;3.88;1.45;;;;;;;;;;21162976;28;20060;-61
2022/07/12 12:21:26;;;;;;;2.60;1.35;;;;;;;;;;21162008;28;20056;-63
2022/07/12 12:31:28;;;;;;;5.90;1.58;;;;;;;;;;21162007;28;20085;-62
2022/07/12 12:41:38;;;;;;;5.65;1.73;;;;;;;;;;21161716;28;20060;-62
2022/07/12 12:51:52;;;;;;;1.83;1.40;;;;;;;;;;21161625;28;20044;-61
2022/07/12 13:01:55;;;;;;;7.28;1.80;;;;;;;;;;21161910;28;20044;-62
2022/07/12 13:11:57;;;;;;;3.70;1.40;;;;;;;;;;21168251;28;20416;-63
2022/07/12 13:21:59;;;;;;;2.25;1.55;;;;;;;;;;21175992;28;20079;-61
2022/07/12 13:32:01;;;;;;;2.88;1.63;;;;;;;;;;21157190;28;20086;-62
2022/07/12 13:42:04;;;;;;;7.63;1.70;;;;;;;;;;21174659;28;20062;-61
2022/07/12 13:52:07;;;;;;;3.97;1.77;;;;;;;;;;21172749;28;20043;-63
2022/07/12 14:02:10;;;;;;;3.65;1.45;;;;;;;;;;21172921;28;20052;-63
2022/07/12 14:12:12;;;;;;;3.67;1.65;;;;;;;;;;21170810;28;20059;-61
2022/07/12 14:22:14;;;;;;;3.45;1.95;;;;;;;;;;21170670;28;20525;-63
2022/07/12 14:32:17;;;;;;;9.93;2.10;;;;;;;;;;21170299;28;20120;-62
2022/07/12 14:42:19;;;;;;;2.92;1.95;;;;;;;;;;21168953;28;20048;-62
2022/07/12 14:52:22;;;;;;;3.77;2.30;;;;;;;;;;21168114;28;20055;-62
2022/07/12 15:02:24;;;;;;;4.65;1.90;;;;;;;;;;21168422;28;20054;-64
2022/07/12 15:12:26;;;;;;;8.27;1.85;;;;;;;;;;21166035;28;20086;-62
2022/07/12 15:22:28;;;;;;;4.40;1.60;;;;;;;;;;21168995;28;20058;-64
2022/07/12 15:32:29;;;;;;;2.90;1.80;;;;;;;;;;21164465;28;20050;-62
2022/07/12 15:42:31;;;;;;;3.10;2.20;;;;;;;;;;21164490;28;20048;-62
2022/07/12 16:02:54;;;;;;;12.25;4.38;;;;;;;;;;21162728;28;20059;-64
2022/07/12 16:12:56;;;;;;;5.90;2.40;;;;;;;;;;21160294;28;20484;-68
2022/07/12 16:22:58;;;;;;;4.97;2.30;;;;;;;;;;21162321;28;20086;-65
2022/07/12 16:33:00;;;;;;;4.63;2.10;;;;;;;;;;21162040;28;20047;-60
2022/07/12 16:43:02;;;;;;;5.55;2.58;;;;;;;;;;21165016;28;20527;-71
2022/07/12 16:53:04;;;;;;;2.30;2.10;;;;;;;;;;21159899;28;20055;-64
2022/07/12 17:03:06;;;;;;;3.00;2.78;;;;;;;;;;21176856;28;20047;-66
2022/07/12 17:13:08;;;;;;;5.78;2.75;;;;;;;;;;21157540;28;20100;-68
2022/07/12 17:23:10;;;;;;;2.40;2.13;;;;;;;;;;21175644;28;20419;-68
2022/07/12 17:33:11;;;;;;;5.95;2.38;;;;;;;;;;21176273;28;20044;-68
2022/07/12 17:43:13;;;;;;;4.45;2.53;;;;;;;;;;21175049;28;20130;-80
2022/07/12 17:53:15;;;;;;;2.90;2.55;;;;;;;;;;21173380;28;20079;-60
2022/07/12 18:03:17;;;;;;;2.65;2.10;;;;;;;;;;21171565;28;20048;-65
2022/07/12 18:23:42;;;;;;;6.70;3.80;;;;;;;;;;21170117;28;20055;-65
2022/07/12 18:33:44;;;;;;;4.72;2.60;;;;;;;;;;21170604;28;20051;-64
2022/07/12 18:43:46;;;;;;;6.55;3.13;;;;;;;;;;21170289;28;20552;-62
2022/07/12 18:53:48;;;;;;;6.22;3.45;;;;;;;;;;21153022;28;20176;-67
2022/07/12 19:03:50;;;;;;;4.63;3.13;;;;;;;;;;21172275;28;20503;-72
2022/07/12 19:13:53;;;;;;;4.70;4.25;;;;;;;;;;21150740;28;20047;-63
2022/07/12 19:23:55;;;;;;;24.73;7.63;;;;;;;;;;21170483;28;20112;-64
2022/07/12 19:33:58;;;;;;;11.55;5.38;;;;;;;;;;21166257;28;20052;-63
2022/07/12 19:44:00;;;;;;;5.68;4.40;;;;;;;;;;21165349;28;20082;-64
2022/07/12 19:54:02;;;;;;;6.50;4.13;;;;;;;;;;21165515;28;20083;-64
2022/07/12 20:04:04;;;;;;;10.45;4.72;;;;;;;;;;21164386;28;20124;-65
2022/07/12 20:14:05;;;;;;;7.13;4.70;;;;;;;;;;21163812;28;20044;-63
2022/07/12 20:24:07;;;;;;;7.50;5.07;;;;;;;;;;21189629;28;20071;-64
2022/07/12 20:34:27;;;;;;;10.75;5.53;;;;;;;;;;21193085;28;20055;-63
2022/07/12 20:44:30;;;;;;;10.20;5.10;;;;;;;;;;21195739;28;20079;-66
2022/07/12 20:54:32;;;;;;;7.00;4.70;;;;;;;;;;21191703;28;20051;-65
2022/07/12 21:04:34;;;;;;;7.25;5.18;;;;;;;;;;21191021;28;20098;-66
2022/07/12 21:14:36;;;;;;;9.80;5.13;;;;;;;;;;21189982;28;20134;-65
2022/07/12 21:24:37;;;;;;;9.00;5.20;;;;;;;;;;21188909;28;20389;-67
2022/07/12 21:34:40;;;;;;;9.00;6.65;;;;;;;;;;21161837;28;20487;-69
2022/07/12 21:44:42;;;;;;;12.80;5.60;;;;;;;;;;21175749;28;20048;-66
2022/07/12 21:54:44;;;;;;;15.48;5.60;;;;;;;;;;21173008;28;20424;-65
2022/07/12 22:04:45;;;;;;;9.80;5.15;;;;;;;;;;21134741;28;20135;-63
2022/07/12 22:14:47;;;;;;;8.40;5.35;;;;;;;;;;21086931;28;20048;-64
2022/07/12 22:24:49;;;;;;;12.18;7.18;;;;;;;;;;21086731;28;20140;-64
2022/07/12 22:34:51;;;;;;;12.82;8.50;;;;;;;;;;21085957;28;20126;-63
2022/07/12 22:44:52;;;;;;;7.55;5.80;;;;;;;;;;21084944;28;20449;-63
2022/07/12 22:54:54;;;;;;;9.40;6.57;;;;;;;;;;21084117;28;20135;-64
2022/07/12 23:04:56;;;;;;;7.78;5.28;;;;;;;;;;21083407;28;20052;-66
2022/07/12 23:14:58;;;;;;;9.05;6.18;;;;;;;;;;21083771;28;20420;-66
2022/07/12 23:25:00;;;;;;;11.80;6.63;;;;;;;;;;21082210;28;20074;-65
2022/07/12 23:35:02;;;;;;;8.98;7.05;;;;;;;;;;21079875;28;20048;-65
2022/07/12 23:45:04;;;;;;;10.88;4.50;;;;;;;;;;21081062;28;20122;-67
2022/07/12 23:55:06;;;;;;;5.45;4.75;;;;;;;;;;21079785;28;20043;-66
